Ackerman, Mississippi
Current Conditions -  °F | °C
As of 12:15 AM on Friday 19 Dec 2014 (Local Time) from KSTF Reporting Station
Overcast Overcast  
Wind Chill: 45°   Ceiling: 3100
Heat Index: 45°   Visibility: 10mi
Dew Point: 37°   Wind: 3mph
Humidity: 76%   Direction: 10°N
Pressure: 30.2"   Gusts: NA
Location:  33.31°N, 89.17°W
Report Text: KSTF 190615Z AUTO 01003KT 10SM OVC031 07/03 A3020 RMK AO2
Loading
Personal Weather Stations






























Interactive Weather Map New forecast layout! Learn more

10-Day Weather Forecast

Advertisements
Track Severe Weather on mobile